Terminal Aerodrome Forecast
Issued by NWS Cleveland, OH

Home | Current Version | Previous Version | Graphics & Text | Print | Product List | Glossary On
Versions: 1 2 3 4 5 6 7 8 9 10 11 12 13 14 15 16 17 18 19 20 21 22 23 24 25 26 27
000
FTUS41 KCLE 200322 AAA
TAFERI
TAF AMD
KERI 200322Z 2003/2024 00000KT 2SM BR OVC250
     FM200800 12008KT 6SM BR OVC015
     FM201400 13010KT 4SM -RA BR OVC005
     FM201500 13010KT 2SM -RA BR OVC005
     FM202200 19005KT 4SM -RA BR OVC005=

USA.gov is the U.S. government's official web portal to all federal, state and local government web resources and services.